Time;durP1;ratioP1;P1;durP2;ratioP2;P2;SDS_P1;SDS_P2;PMS_P1;PMS_P2;Temp;Humidity;BMP_temperature;BMP_pressure;BME280_temperature;BME280_humidity;BME280_pressure;Samples;Min_cycle;Max_cycle;Signal;HPM_P1;HPM_P2
2021/05/28 00:01:16;;;;;;;1.55;1.45;;;;;;;;;;5049364;28;20495;-68
2021/05/28 00:03:42;;;;;;;3.35;2.10;;;;;;;;;;5049496;28;20040;-67
2021/05/28 00:06:08;;;;;;;1.27;1.25;;;;;;;;;;5050180;28;20029;-67
2021/05/28 00:08:34;;;;;;;1.60;1.40;;;;;;;;;;5048840;28;20033;-67
2021/05/28 00:11:00;;;;;;;2.55;1.90;;;;;;;;;;5048622;28;20025;-67
2021/05/28 00:13:26;;;;;;;1.88;1.75;;;;;;;;;;5048998;28;20040;-68
2021/05/28 00:15:53;;;;;;;1.80;1.30;;;;;;;;;;5050198;28;20438;-67
2021/05/28 00:18:19;;;;;;;1.67;1.40;;;;;;;;;;5049082;28;20119;-67
2021/05/28 00:20:45;;;;;;;1.90;1.70;;;;;;;;;;5049790;28;20476;-67
2021/05/28 00:23:11;;;;;;;2.00;1.73;;;;;;;;;;5049503;28;20102;-67
2021/05/28 00:25:37;;;;;;;1.75;1.45;;;;;;;;;;5049351;28;20029;-68
2021/05/28 00:28:03;;;;;;;2.10;1.60;;;;;;;;;;5048593;28;20024;-67
2021/05/28 00:30:29;;;;;;;2.17;1.88;;;;;;;;;;5048685;28;20025;-67
2021/05/28 00:32:55;;;;;;;1.63;1.55;;;;;;;;;;5049466;28;20411;-67
2021/05/28 00:35:21;;;;;;;1.50;1.30;;;;;;;;;;5048854;28;20032;-68
2021/05/28 00:37:47;;;;;;;2.47;1.35;;;;;;;;;;5049321;28;20033;-68
2021/05/28 00:40:14;;;;;;;1.77;1.67;;;;;;;;;;5046910;28;20457;-67
2021/05/28 00:42:40;;;;;;;2.35;2.15;;;;;;;;;;5049180;28;20384;-68
2021/05/28 00:45:07;;;;;;;2.10;1.40;;;;;;;;;;5049217;28;20025;-67
2021/05/28 00:47:34;;;;;;;1.45;1.35;;;;;;;;;;5048422;28;20876;-67
2021/05/28 00:50:00;;;;;;;3.22;1.92;;;;;;;;;;5048399;28;20115;-67
2021/05/28 00:52:26;;;;;;;1.50;1.40;;;;;;;;;;5048517;28;20029;-67
2021/05/28 00:54:52;;;;;;;1.88;1.75;;;;;;;;;;5049287;28;20479;-67
2021/05/28 00:57:19;;;;;;;1.85;1.45;;;;;;;;;;5048499;28;20021;-67
2021/05/28 00:59:48;;;;;;;1.70;1.60;;;;;;;;;;5047636;28;20029;-67
2021/05/28 01:02:15;;;;;;;1.75;1.55;;;;;;;;;;5047327;28;20044;-67
2021/05/28 01:04:41;;;;;;;1.38;1.20;;;;;;;;;;5048152;28;20094;-67
2021/05/28 01:07:07;;;;;;;1.52;1.42;;;;;;;;;;5047832;28;20033;-67
2021/05/28 01:09:33;;;;;;;1.52;1.42;;;;;;;;;;5046166;28;20129;-67
2021/05/28 01:11:59;;;;;;;1.33;1.23;;;;;;;;;;5048187;28;20024;-67
2021/05/28 01:14:26;;;;;;;1.65;1.27;;;;;;;;;;5047572;28;20446;-67
2021/05/28 01:16:52;;;;;;;1.17;1.08;;;;;;;;;;5049191;28;20028;-67
2021/05/28 01:19:18;;;;;;;2.03;1.92;;;;;;;;;;5046899;28;20025;-67
2021/05/28 01:21:44;;;;;;;1.20;1.10;;;;;;;;;;5048195;28;20040;-67
2021/05/28 01:24:11;;;;;;;1.52;1.42;;;;;;;;;;5048501;28;20021;-67
2021/05/28 01:26:37;;;;;;;1.58;1.25;;;;;;;;;;5048118;28;20464;-67
2021/05/28 01:29:03;;;;;;;1.92;1.50;;;;;;;;;;5046804;28;20329;-67
2021/05/28 01:31:30;;;;;;;0.95;0.90;;;;;;;;;;5047836;28;20027;-67
2021/05/28 01:33:56;;;;;;;1.75;1.45;;;;;;;;;;5048377;28;20083;-67
2021/05/28 01:36:22;;;;;;;1.92;1.70;;;;;;;;;;5048114;28;20037;-67
2021/05/28 01:38:48;;;;;;;1.52;1.38;;;;;;;;;;5047393;28;20028;-67
2021/05/28 01:41:14;;;;;;;0.95;0.90;;;;;;;;;;5046132;28;20124;-67
2021/05/28 01:43:41;;;;;;;1.92;1.23;;;;;;;;;;5047941;28;20094;-67
2021/05/28 01:46:07;;;;;;;1.70;1.10;;;;;;;;;;5048269;28;20032;-68
2021/05/28 01:48:33;;;;;;;2.30;1.40;;;;;;;;;;5046363;28;20257;-67
2021/05/28 01:50:59;;;;;;;1.73;1.38;;;;;;;;;;5047823;28;20044;-68
2021/05/28 01:53:26;;;;;;;1.65;1.30;;;;;;;;;;5047127;28;20021;-67
2021/05/28 01:55:53;;;;;;;2.58;2.00;;;;;;;;;;5048473;28;20021;-67
2021/05/28 01:58:20;;;;;;;1.63;1.45;;;;;;;;;;5046786;28;20025;-67
2021/05/28 02:00:51;;;;;;;1.10;1.00;;;;;;;;;;5047029;28;20056;-67
2021/05/28 02:03:18;;;;;;;1.90;1.80;;;;;;;;;;5047449;28;20491;-67
2021/05/28 02:05:44;;;;;;;1.35;1.25;;;;;;;;;;5047551;28;20510;-67
2021/05/28 02:08:11;;;;;;;1.73;1.27;;;;;;;;;;5047691;28;20041;-67
2021/05/28 02:10:37;;;;;;;1.13;0.90;;;;;;;;;;5044327;28;20035;-67
2021/05/28 02:13:03;;;;;;;1.63;1.20;;;;;;;;;;5048314;28;20511;-67
2021/05/28 02:15:30;;;;;;;2.03;1.67;;;;;;;;;;5046788;28;20048;-67
2021/05/28 02:17:56;;;;;;;1.45;1.33;;;;;;;;;;5047646;28;20531;-67
2021/05/28 02:20:22;;;;;;;3.30;1.77;;;;;;;;;;5046591;28;20125;-67
2021/05/28 02:22:49;;;;;;;1.95;1.73;;;;;;;;;;5047677;28;20345;-67
2021/05/28 02:25:15;;;;;;;1.90;1.55;;;;;;;;;;5051123;28;20056;-67
2021/05/28 02:27:41;;;;;;;1.45;1.35;;;;;;;;;;5050981;28;20116;-67
2021/05/28 02:30:08;;;;;;;1.65;1.55;;;;;;;;;;5050618;28;20049;-67
2021/05/28 02:32:34;;;;;;;1.50;1.40;;;;;;;;;;5050965;28;20071;-67
2021/05/28 02:35:01;;;;;;;2.85;1.10;;;;;;;;;;5051424;28;20523;-67
2021/05/28 02:37:27;;;;;;;1.95;1.58;;;;;;;;;;5051049;28;20112;-67
2021/05/28 02:39:53;;;;;;;1.48;1.38;;;;;;;;;;5049487;28;20059;-67
2021/05/28 02:42:19;;;;;;;1.65;1.50;;;;;;;;;;5049600;28;20036;-67
2021/05/28 02:44:45;;;;;;;2.50;1.30;;;;;;;;;;5051405;28;20395;-67
2021/05/28 02:47:11;;;;;;;1.17;1.08;;;;;;;;;;5051515;28;20033;-67
2021/05/28 02:49:38;;;;;;;1.48;1.13;;;;;;;;;;5050192;28;20491;-67
2021/05/28 02:52:04;;;;;;;1.30;1.20;;;;;;;;;;5050767;28;20498;-67
2021/05/28 02:54:31;;;;;;;1.65;1.55;;;;;;;;;;5049697;28;20329;-67
2021/05/28 02:56:57;;;;;;;1.60;1.17;;;;;;;;;;5051494;28;20025;-67
2021/05/28 02:59:23;;;;;;;1.80;1.45;;;;;;;;;;5050253;28;20036;-67
2021/05/28 03:01:49;;;;;;;2.40;1.42;;;;;;;;;;5050522;28;20039;-67
2021/05/28 03:04:16;;;;;;;1.17;1.17;;;;;;;;;;5050294;28;20021;-67
2021/05/28 03:06:42;;;;;;;1.40;1.20;;;;;;;;;;5050693;28;20493;-67
2021/05/28 03:09:08;;;;;;;1.58;1.48;;;;;;;;;;5049790;28;20063;-67
2021/05/28 03:11:34;;;;;;;2.10;1.40;;;;;;;;;;5050091;28;20025;-67
2021/05/28 03:14:01;;;;;;;2.85;1.50;;;;;;;;;;5049834;28;20029;-67
2021/05/28 03:16:27;;;;;;;1.20;1.20;;;;;;;;;;5049085;28;20031;-67
2021/05/28 03:18:56;;;;;;;1.38;1.27;;;;;;;;;;5050570;28;20167;-67
2021/05/28 03:23:49;;;;;;;1.90;1.55;;;;;;;;;;5049996;28;20033;-67
2021/05/28 03:26:15;;;;;;;1.33;1.23;;;;;;;;;;5050103;28;20029;-67
2021/05/28 03:28:41;;;;;;;1.88;1.10;;;;;;;;;;5049328;28;20123;-67
2021/05/28 03:31:07;;;;;;;1.95;1.30;;;;;;;;;;5050617;28;20033;-67
2021/05/28 03:33:34;;;;;;;1.30;1.20;;;;;;;;;;5049460;28;20509;-67
2021/05/28 03:36:00;;;;;;;1.92;1.75;;;;;;;;;;5050421;28;20261;-67
2021/05/28 03:38:26;;;;;;;1.33;1.23;;;;;;;;;;5049052;28;20086;-67
2021/05/28 03:40:52;;;;;;;3.03;1.05;;;;;;;;;;5049035;28;20053;-67
2021/05/28 03:43:18;;;;;;;1.38;1.27;;;;;;;;;;5049524;28;20028;-67
2021/05/28 03:45:44;;;;;;;1.60;1.42;;;;;;;;;;5049214;28;20112;-67
2021/05/28 03:48:10;;;;;;;0.95;0.95;;;;;;;;;;5049933;28;20037;-67
2021/05/28 03:50:36;;;;;;;2.15;1.98;;;;;;;;;;5048626;28;20452;-67
2021/05/28 03:53:03;;;;;;;1.85;1.05;;;;;;;;;;5050160;28;20033;-67
2021/05/28 03:55:29;;;;;;;1.67;1.38;;;;;;;;;;5049059;28;20423;-67
2021/05/28 03:57:55;;;;;;;1.83;1.30;;;;;;;;;;5049811;28;20032;-67
2021/05/28 04:00:22;;;;;;;4.30;2.17;;;;;;;;;;5049063;28;20110;-67
2021/05/28 04:02:48;;;;;;;0.95;0.93;;;;;;;;;;5050037;28;20068;-67
2021/05/28 04:05:15;;;;;;;0.85;0.82;;;;;;;;;;5048075;28;20376;-67
2021/05/28 04:07:41;;;;;;;1.30;0.88;;;;;;;;;;5048954;28;20033;-67
2021/05/28 04:10:08;;;;;;;2.03;1.33;;;;;;;;;;5047635;28;20087;-67
2021/05/28 04:12:34;;;;;;;1.77;1.67;;;;;;;;;;5049597;28;20032;-67
2021/05/28 04:15:00;;;;;;;1.73;1.35;;;;;;;;;;5049646;28;20033;-67
2021/05/28 04:17:26;;;;;;;3.30;1.65;;;;;;;;;;5048753;28;20054;-67
2021/05/28 04:19:52;;;;;;;1.98;1.73;;;;;;;;;;5049079;28;20025;-67
2021/05/28 04:22:18;;;;;;;3.28;1.58;;;;;;;;;;5048819;28;20064;-67
2021/05/28 04:24:45;;;;;;;1.75;1.42;;;;;;;;;;5050147;28;20103;-67
2021/05/28 04:27:12;;;;;;;1.55;1.27;;;;;;;;;;5048751;28;20389;-67
2021/05/28 04:29:38;;;;;;;2.45;1.35;;;;;;;;;;5048164;28;20059;-67
2021/05/28 04:32:04;;;;;;;1.45;1.20;;;;;;;;;;5049063;28;20100;-67
2021/05/28 04:34:30;;;;;;;3.13;1.35;;;;;;;;;;5049312;28;20021;-67
2021/05/28 04:36:56;;;;;;;1.40;1.00;;;;;;;;;;5049044;28;20048;-67
2021/05/28 04:39:22;;;;;;;1.38;1.27;;;;;;;;;;5046351;28;20086;-67
2021/05/28 04:41:48;;;;;;;1.42;1.33;;;;;;;;;;5048574;28;20049;-67
2021/05/28 04:44:14;;;;;;;1.60;1.48;;;;;;;;;;5049076;28;20206;-67
2021/05/28 04:46:40;;;;;;;2.47;1.33;;;;;;;;;;5048020;28;20017;-67
2021/05/28 04:49:06;;;;;;;1.63;1.10;;;;;;;;;;5047974;28;20025;-66
2021/05/28 04:51:32;;;;;;;1.48;1.38;;;;;;;;;;5048629;28;20072;-67
2021/05/28 04:53:58;;;;;;;1.40;1.30;;;;;;;;;;5049245;28;20388;-67
2021/05/28 04:56:25;;;;;;;1.60;1.10;;;;;;;;;;5048637;28;20104;-67
2021/05/28 04:58:51;;;;;;;0.93;0.93;;;;;;;;;;5047213;28;20029;-67
2021/05/28 05:01:17;;;;;;;1.55;1.45;;;;;;;;;;5048166;28;20044;-67
2021/05/28 05:03:43;;;;;;;1.25;1.15;;;;;;;;;;5048334;28;20029;-67
2021/05/28 05:06:09;;;;;;;1.42;1.40;;;;;;;;;;5049142;28;20025;-67
2021/05/28 05:08:36;;;;;;;1.67;1.35;;;;;;;;;;5046663;28;20033;-67
2021/05/28 05:11:03;;;;;;;1.40;1.30;;;;;;;;;;5047351;28;20029;-67
2021/05/28 05:13:29;;;;;;;1.35;1.23;;;;;;;;;;5047901;28;20029;-67
2021/05/28 05:15:55;;;;;;;3.35;1.42;;;;;;;;;;5048492;28;20484;-67
2021/05/28 05:18:21;;;;;;;1.30;1.13;;;;;;;;;;5047395;28;20411;-67
2021/05/28 05:20:47;;;;;;;1.08;1.00;;;;;;;;;;5047640;28;20491;-67
2021/05/28 05:23:13;;;;;;;1.00;0.90;;;;;;;;;;5048089;28;20527;-67
2021/05/28 05:25:39;;;;;;;1.70;1.10;;;;;;;;;;5048487;28;20055;-67
2021/05/28 05:28:05;;;;;;;1.65;1.42;;;;;;;;;;5047861;28;20021;-67
2021/05/28 05:30:31;;;;;;;1.27;1.10;;;;;;;;;;5046153;28;20025;-67
2021/05/28 05:32:57;;;;;;;1.67;1.45;;;;;;;;;;5048269;28;20547;-67
2021/05/28 05:35:23;;;;;;;1.20;1.10;;;;;;;;;;5047419;28;20369;-67
2021/05/28 05:37:50;;;;;;;2.03;1.20;;;;;;;;;;5048274;28;20032;-67
2021/05/28 05:40:16;;;;;;;1.25;1.17;;;;;;;;;;5046125;28;20405;-67
2021/05/28 05:42:42;;;;;;;2.15;1.20;;;;;;;;;;5047506;28;20041;-67
2021/05/28 05:45:10;;;;;;;1.08;1.02;;;;;;;;;;5047992;28;20027;-67
2021/05/28 05:47:36;;;;;;;1.30;1.23;;;;;;;;;;5047021;28;20554;-67
2021/05/28 05:50:03;;;;;;;1.77;1.08;;;;;;;;;;5046991;28;20018;-67
2021/05/28 05:52:29;;;;;;;1.83;0.85;;;;;;;;;;5047619;28;20052;-67
2021/05/28 05:54:56;;;;;;;2.45;1.60;;;;;;;;;;5047836;28;20032;-67
2021/05/28 05:57:22;;;;;;;3.78;2.15;;;;;;;;;;5047339;28;20017;-67
2021/05/28 05:59:48;;;;;;;4.45;1.98;;;;;;;;;;5050701;28;20033;-67
2021/05/28 06:02:14;;;;;;;3.67;1.13;;;;;;;;;;5049577;28;20033;-67
2021/05/28 06:04:40;;;;;;;4.65;1.80;;;;;;;;;;5051142;28;20040;-67
2021/05/28 06:07:06;;;;;;;4.28;2.75;;;;;;;;;;5047016;28;20029;-67
2021/05/28 06:09:32;;;;;;;4.75;2.47;;;;;;;;;;5048020;28;20082;-67
2021/05/28 06:11:59;;;;;;;3.40;1.88;;;;;;;;;;5040551;28;20132;-67
2021/05/28 06:14:26;;;;;;;10.35;3.83;;;;;;;;;;5038213;28;20086;-67
2021/05/28 06:16:52;;;;;;;4.55;1.90;;;;;;;;;;5052159;28;20127;-67
2021/05/28 06:19:18;;;;;;;3.15;2.53;;;;;;;;;;5048759;28;20399;-67
2021/05/28 06:21:44;;;;;;;2.03;1.88;;;;;;;;;;5048485;28;20083;-66
2021/05/28 06:24:11;;;;;;;5.43;2.72;;;;;;;;;;5047327;28;20048;-67
2021/05/28 06:26:37;;;;;;;6.72;2.53;;;;;;;;;;5035785;28;20028;-67
2021/05/28 06:29:06;;;;;;;4.43;1.85;;;;;;;;;;5047095;28;20021;-68
2021/05/28 06:31:32;;;;;;;2.78;2.03;;;;;;;;;;5046019;28;20033;-67
2021/05/28 06:33:58;;;;;;;2.63;1.85;;;;;;;;;;5049200;28;20178;-68
2021/05/28 06:36:24;;;;;;;6.13;2.17;;;;;;;;;;5045291;28;20032;-68
2021/05/28 06:38:51;;;;;;;9.75;2.15;;;;;;;;;;5041446;28;20149;-68
2021/05/28 06:41:17;;;;;;;2.75;1.92;;;;;;;;;;5033791;28;20057;-68
2021/05/28 06:43:43;;;;;;;5.80;2.97;;;;;;;;;;5043780;28;20507;-72
2021/05/28 06:46:09;;;;;;;3.42;2.25;;;;;;;;;;5045004;28;20029;-67
2021/05/28 06:48:35;;;;;;;5.53;2.10;;;;;;;;;;5038079;28;20029;-68
2021/05/28 06:51:01;;;;;;;5.53;3.63;;;;;;;;;;5040393;28;20081;-68
2021/05/28 06:53:27;;;;;;;3.80;2.50;;;;;;;;;;5034100;28;20549;-68
2021/05/28 06:55:53;;;;;;;2.97;2.00;;;;;;;;;;5030514;28;20296;-68
2021/05/28 06:58:21;;;;;;;8.10;4.63;;;;;;;;;;5029925;28;20028;-68
2021/05/28 07:00:47;;;;;;;10.38;2.97;;;;;;;;;;5046609;28;20047;-67
2021/05/28 07:03:13;;;;;;;7.28;3.38;;;;;;;;;;5056977;28;20025;-68
2021/05/28 07:05:40;;;;;;;8.45;3.42;;;;;;;;;;5054660;28;20044;-68
2021/05/28 07:08:06;;;;;;;13.55;3.85;;;;;;;;;;5049849;28;20506;-67
2021/05/28 07:10:33;;;;;;;9.75;4.18;;;;;;;;;;5044075;28;20017;-66
2021/05/28 07:12:59;;;;;;;8.40;3.00;;;;;;;;;;5049940;28;20032;-67
2021/05/28 07:15:25;;;;;;;8.98;3.00;;;;;;;;;;5045761;28;20040;-67
2021/05/28 07:17:51;;;;;;;6.97;3.45;;;;;;;;;;5049217;28;20052;-66
2021/05/28 07:20:17;;;;;;;14.98;4.13;;;;;;;;;;5046095;28;20029;-66
2021/05/28 07:22:44;;;;;;;8.40;3.25;;;;;;;;;;5046675;28;20105;-73
2021/05/28 07:25:10;;;;;;;9.20;2.67;;;;;;;;;;5029525;28;20065;-67
2021/05/28 07:27:37;;;;;;;6.68;3.30;;;;;;;;;;5026764;28;20037;-67
2021/05/28 07:30:08;;;;;;;10.68;2.90;;;;;;;;;;5042807;28;20025;-67
2021/05/28 07:32:36;;;;;;;8.55;2.53;;;;;;;;;;5047795;28;20649;-67
2021/05/28 07:35:02;;;;;;;6.07;3.00;;;;;;;;;;5047596;28;20017;-68
2021/05/28 07:37:28;;;;;;;7.72;3.35;;;;;;;;;;5042584;28;20029;-70
2021/05/28 07:39:54;;;;;;;6.68;2.95;;;;;;;;;;5024416;28;20032;-67
2021/05/28 07:42:21;;;;;;;7.60;4.10;;;;;;;;;;5030077;28;20038;-68
2021/05/28 07:44:48;;;;;;;5.88;3.83;;;;;;;;;;5039445;28;20526;-68
2021/05/28 07:47:14;;;;;;;10.23;4.18;;;;;;;;;;5045361;28;20025;-67
2021/05/28 07:49:40;;;;;;;6.55;3.63;;;;;;;;;;5047091;28;20625;-69
2021/05/28 07:52:07;;;;;;;8.43;3.33;;;;;;;;;;5046968;28;20051;-68
2021/05/28 07:54:34;;;;;;;7.68;3.00;;;;;;;;;;5046575;28;20071;-66
2021/05/28 07:57:00;;;;;;;5.30;2.80;;;;;;;;;;5047161;28;20033;-68
2021/05/28 07:59:26;;;;;;;8.05;2.92;;;;;;;;;;5047305;28;20033;-67
2021/05/28 08:01:52;;;;;;;6.63;2.88;;;;;;;;;;5046285;28;20033;-67
2021/05/28 08:04:19;;;;;;;8.93;3.28;;;;;;;;;;5047534;28;20516;-67
2021/05/28 08:06:45;;;;;;;12.02;3.45;;;;;;;;;;5045324;28;20125;-67
2021/05/28 08:09:11;;;;;;;9.73;3.50;;;;;;;;;;5046354;28;20368;-67
2021/05/28 08:11:37;;;;;;;9.85;3.33;;;;;;;;;;5045823;28;20273;-66
2021/05/28 08:14:03;;;;;;;8.15;3.35;;;;;;;;;;5040186;28;20557;-67
2021/05/28 08:16:29;;;;;;;6.65;2.85;;;;;;;;;;5044398;28;20057;-67
2021/05/28 08:18:55;;;;;;;9.13;3.63;;;;;;;;;;5047072;28;20501;-67
2021/05/28 08:21:22;;;;;;;10.27;3.78;;;;;;;;;;5037495;28;20049;-66
2021/05/28 08:23:48;;;;;;;7.78;3.10;;;;;;;;;;5026432;28;20044;-66
2021/05/28 08:26:14;;;;;;;5.32;2.90;;;;;;;;;;5027180;28;20119;-67
2021/05/28 08:28:40;;;;;;;4.85;2.35;;;;;;;;;;5041780;28;20028;-67
2021/05/28 08:31:07;;;;;;;9.43;3.05;;;;;;;;;;5048004;28;20036;-67
2021/05/28 08:33:33;;;;;;;6.68;2.90;;;;;;;;;;5046980;28;20100;-68
2021/05/28 08:35:59;;;;;;;6.72;2.50;;;;;;;;;;5048063;28;20021;-68
2021/05/28 08:38:25;;;;;;;4.05;2.47;;;;;;;;;;5046740;28;20033;-67
2021/05/28 08:40:52;;;;;;;6.63;4.28;;;;;;;;;;5045839;28;20049;-67
2021/05/28 08:43:18;;;;;;;5.22;2.97;;;;;;;;;;5046919;28;20124;-67
2021/05/28 08:45:45;;;;;;;5.65;3.13;;;;;;;;;;5045492;28;20025;-67
2021/05/28 08:48:12;;;;;;;6.18;3.40;;;;;;;;;;5047337;28;20033;-67
2021/05/28 08:50:39;;;;;;;3.75;2.85;;;;;;;;;;5046629;28;20514;-67
2021/05/28 08:53:10;;;;;;;5.20;3.17;;;;;;;;;;5047125;28;20458;-67
2021/05/28 08:55:37;;;;;;;9.73;2.60;;;;;;;;;;5045129;28;20037;-65
2021/05/28 08:58:06;;;;;;;4.38;2.00;;;;;;;;;;5045651;28;20127;-67
2021/05/28 09:00:33;;;;;;;4.00;2.55;;;;;;;;;;5046420;28;20096;-66
2021/05/28 09:03:17;;;;;;;5.07;2.35;;;;;;;;;;5041128;28;20052;-66
2021/05/28 09:05:43;;;;;;;;;;;;;;;;;;5036548;28;20094;-66
2021/05/28 09:08:09;;;;;;;4.15;2.85;;;;;;;;;;5036008;28;20051;-66
2021/05/28 09:10:35;;;;;;;3.95;3.42;;;;;;;;;;5035136;28;20047;-67
2021/05/28 09:13:10;;;;;;;4.85;2.63;;;;;;;;;;5036968;28;20384;-66
2021/05/28 09:15:36;;;;;;;9.55;2.55;;;;;;;;;;5042086;28;20024;-66
2021/05/28 09:18:02;;;;;;;4.63;2.35;;;;;;;;;;5046503;28;20083;-66
2021/05/28 09:20:28;;;;;;;4.70;3.10;;;;;;;;;;5043754;28;20043;-68
2021/05/28 09:23:11;;;;;;;5.93;2.78;;;;;;;;;;5026660;28;20049;-67
2021/05/28 09:25:53;;;;;;;11.07;4.22;;;;;;;;;;5029862;28;20029;-67
2021/05/28 09:28:19;;;;;;;9.00;2.38;;;;;;;;;;5038611;28;20175;-67
2021/05/28 09:31:02;;;;;;;3.95;2.17;;;;;;;;;;5035560;28;20064;-67
2021/05/28 09:33:32;;;;;;;5.43;2.33;;;;;;;;;;5036661;28;20033;-67
2021/05/28 09:36:09;;;;;;;3.33;2.72;;;;;;;;;;5036251;28;20132;-67
2021/05/28 09:38:37;;;;;;;6.95;2.92;;;;;;;;;;5033459;28;20427;-66
2021/05/28 09:41:04;;;;;;;7.85;3.40;;;;;;;;;;5035913;28;20049;-66
2021/05/28 09:43:32;;;;;;;7.47;3.28;;;;;;;;;;5041758;28;20052;-66
2021/05/28 09:45:58;;;;;;;6.00;3.17;;;;;;;;;;5046351;28;20025;-66
2021/05/28 09:48:26;;;;;;;3.42;2.60;;;;;;;;;;5040638;28;20033;-66
2021/05/28 09:50:53;;;;;;;5.95;2.88;;;;;;;;;;5035173;28;20025;-67
2021/05/28 09:53:25;;;;;;;3.38;2.55;;;;;;;;;;5033336;28;20130;-67
2021/05/28 09:55:52;;;;;;;5.20;3.17;;;;;;;;;;5028060;28;20634;-67
2021/05/28 09:58:19;;;;;;;5.15;2.22;;;;;;;;;;5029571;28;20171;-67
2021/05/28 10:00:45;;;;;;;4.57;2.63;;;;;;;;;;5045547;28;20569;-68
2021/05/28 10:03:11;;;;;;;3.03;2.15;;;;;;;;;;5040959;28;20037;-67
2021/05/28 10:05:39;;;;;;;5.40;3.25;;;;;;;;;;5034147;28;20087;-67
2021/05/28 10:08:07;;;;;;;3.53;2.35;;;;;;;;;;5037658;28;20111;-67
2021/05/28 10:10:35;;;;;;;4.70;2.63;;;;;;;;;;5034883;28;20021;-66
2021/05/28 10:13:09;;;;;;;4.63;2.65;;;;;;;;;;5035098;28;20021;-67
2021/05/28 10:15:35;;;;;;;6.82;2.63;;;;;;;;;;5036669;28;20028;-67
2021/05/28 10:18:03;;;;;;;4.07;2.38;;;;;;;;;;5046445;28;20043;-67
2021/05/28 10:20:29;;;;;;;7.97;2.60;;;;;;;;;;5043877;28;20495;-67
2021/05/28 10:22:55;;;;;;;4.40;2.15;;;;;;;;;;5045734;28;20033;-67
2021/05/28 10:25:23;;;;;;;3.90;2.03;;;;;;;;;;5046131;28;20032;-70
2021/05/28 10:27:54;;;;;;;5.22;2.20;;;;;;;;;;5045003;28;20036;-67
2021/05/28 10:30:24;;;;;;;4.07;3.05;;;;;;;;;;5046623;28;20499;-66
2021/05/28 10:33:09;;;;;;;3.13;2.55;;;;;;;;;;5046687;28;20036;-67
2021/05/28 10:35:46;;;;;;;5.47;2.25;;;;;;;;;;5048179;28;20035;-68
2021/05/28 10:38:31;;;;;;;10.98;2.45;;;;;;;;;;5048974;28;20028;-68
2021/05/28 10:40:58;;;;;;;4.00;2.15;;;;;;;;;;5048048;28;20052;-68
2021/05/28 10:43:24;;;;;;;4.43;3.42;;;;;;;;;;5039055;28;20116;-68
2021/05/28 10:46:00;;;;;;;5.45;2.97;;;;;;;;;;5045297;28;20548;-68
2021/05/28 10:48:42;;;;;;;5.45;3.22;;;;;;;;;;5046644;28;20044;-69
2021/05/28 10:51:08;;;;;;;5.63;2.75;;;;;;;;;;5047822;28;20067;-68
2021/05/28 10:53:34;;;;;;;14.35;3.22;;;;;;;;;;5051190;28;20036;-69
2021/05/28 10:56:01;;;;;;;4.32;2.78;;;;;;;;;;5052401;28;20040;-68
2021/05/28 10:58:57;;;;;;;3.85;2.15;;;;;;;;;;5050747;28;20033;-68
2021/05/28 11:01:32;;;;;;;7.63;2.35;;;;;;;;;;5050708;28;20036;-68
2021/05/28 11:04:05;;;;;;;5.55;3.08;;;;;;;;;;5049987;28;20074;-68
2021/05/28 11:06:32;;;;;;;3.97;2.33;;;;;;;;;;5050658;28;20063;-68
2021/05/28 11:09:04;;;;;;;4.30;2.42;;;;;;;;;;5051988;28;20137;-68
2021/05/28 11:11:37;;;;;;;4.75;2.35;;;;;;;;;;5050825;28;20490;-68
2021/05/28 11:14:12;;;;;;;5.57;2.13;;;;;;;;;;5051971;28;20425;-68
2021/05/28 11:16:55;;;;;;;3.00;2.00;;;;;;;;;;5051460;28;20029;-68
2021/05/28 11:19:47;;;;;;;2.60;2.10;;;;;;;;;;5051333;28;20075;-68
2021/05/28 11:22:15;;;;;;;3.53;2.55;;;;;;;;;;5051405;28;20049;-68
2021/05/28 11:24:43;;;;;;;3.17;2.33;;;;;;;;;;5050832;28;20578;-68
2021/05/28 11:27:16;;;;;;;3.38;2.53;;;;;;;;;;5051402;28;20369;-68
2021/05/28 11:29:42;;;;;;;10.55;3.42;;;;;;;;;;5048551;28;20719;-68
2021/05/28 11:32:27;;;;;;;4.95;3.22;;;;;;;;;;5051258;28;20471;-68
2021/05/28 11:35:28;;;;;;;6.20;3.15;;;;;;;;;;5050339;28;20094;-68
2021/05/28 11:37:59;;;;;;;3.58;2.35;;;;;;;;;;5036967;28;20044;-68
2021/05/28 11:40:26;;;;;;;6.35;2.80;;;;;;;;;;5045835;28;20345;-70
2021/05/28 11:42:53;;;;;;;7.20;2.80;;;;;;;;;;5048977;28;20037;-68
2021/05/28 11:45:21;;;;;;;5.72;2.35;;;;;;;;;;5049257;28;20036;-68
2021/05/28 11:47:53;;;;;;;3.33;2.78;;;;;;;;;;5050132;28;20846;-68
2021/05/28 11:50:20;;;;;;;5.53;2.97;;;;;;;;;;5049006;28;20037;-69
2021/05/28 11:52:57;;;;;;;6.75;3.05;;;;;;;;;;5050333;28;20348;-69
2021/05/28 11:55:24;;;;;;;4.32;2.53;;;;;;;;;;5050528;28;20071;-69
2021/05/28 11:58:00;;;;;;;4.90;2.70;;;;;;;;;;5050499;28;20120;-68
2021/05/28 12:00:26;;;;;;;2.65;2.42;;;;;;;;;;5048667;28;20381;-69
2021/05/28 12:02:56;;;;;;;2.65;2.45;;;;;;;;;;5047999;28;20036;-71
2021/05/28 12:05:34;;;;;;;4.68;2.90;;;;;;;;;;5048749;28;20021;-68
2021/05/28 12:08:01;;;;;;;3.70;2.70;;;;;;;;;;5049694;28;20021;-68
2021/05/28 12:10:28;;;;;;;3.63;2.78;;;;;;;;;;5048333;28;20074;-68
2021/05/28 12:12:56;;;;;;;3.30;2.65;;;;;;;;;;5049525;28;20520;-70
2021/05/28 12:15:27;;;;;;;5.65;3.10;;;;;;;;;;5050013;28;20383;-68
2021/05/28 12:17:54;;;;;;;3.20;2.50;;;;;;;;;;5049762;28;20013;-68
2021/05/28 12:20:21;;;;;;;3.92;2.83;;;;;;;;;;5050233;28;20036;-68
2021/05/28 12:23:03;;;;;;;4.07;2.88;;;;;;;;;;5048840;28;20094;-69
2021/05/28 12:25:30;;;;;;;5.60;3.17;;;;;;;;;;5049449;28;20490;-68
2021/05/28 12:28:06;;;;;;;5.15;3.45;;;;;;;;;;5050358;28;20112;-68
2021/05/28 12:30:32;;;;;;;5.28;2.20;;;;;;;;;;5048739;28;20507;-68
2021/05/28 12:32:59;;;;;;;4.65;1.88;;;;;;;;;;5049511;28;20036;-68
2021/05/28 12:35:25;;;;;;;2.92;2.60;;;;;;;;;;5049344;28;20051;-68
2021/05/28 12:38:03;;;;;;;6.05;2.58;;;;;;;;;;5046463;28;20482;-69
2021/05/28 12:40:29;;;;;;;4.80;2.90;;;;;;;;;;5047828;28;20515;-68
2021/05/28 12:42:56;;;;;;;4.28;2.70;;;;;;;;;;5050022;28;20037;-69
2021/05/28 12:45:31;;;;;;;2.75;2.55;;;;;;;;;;5049649;28;20029;-68
2021/05/28 12:47:57;;;;;;;2.70;2.33;;;;;;;;;;5049685;28;20029;-68
2021/05/28 12:50:43;;;;;;;7.70;3.03;;;;;;;;;;5050061;28;20071;-68
2021/05/28 12:53:10;;;;;;;2.47;2.28;;;;;;;;;;5049659;28;20017;-68
2021/05/28 12:55:38;;;;;;;10.88;3.70;;;;;;;;;;5048175;28;20029;-68
2021/05/28 12:58:04;;;;;;;11.10;4.00;;;;;;;;;;5049169;28;20119;-66
2021/05/28 13:00:31;;;;;;;8.65;3.47;;;;;;;;;;5048373;28;20104;-65
2021/05/28 13:02:57;;;;;;;5.82;3.00;;;;;;;;;;5048979;28;20171;-65
2021/05/28 13:05:38;;;;;;;5.60;2.97;;;;;;;;;;5048452;28;20077;-65
2021/05/28 13:08:07;;;;;;;2.97;2.70;;;;;;;;;;5045149;28;20091;-65
2021/05/28 13:10:34;;;;;;;4.68;2.72;;;;;;;;;;5047204;28;20033;-66
2021/05/28 13:13:18;;;;;;;4.63;3.42;;;;;;;;;;5048851;28;20112;-68
2021/05/28 13:15:45;;;;;;;4.80;3.78;;;;;;;;;;5048569;28;20510;-68
2021/05/28 13:18:13;;;;;;;7.93;3.20;;;;;;;;;;5049001;28;20455;-68
2021/05/28 13:20:39;;;;;;;6.78;3.58;;;;;;;;;;5047877;28;20033;-68
2021/05/28 13:23:19;;;;;;;4.43;2.85;;;;;;;;;;5048943;28;20053;-68
2021/05/28 13:25:47;;;;;;;10.52;4.05;;;;;;;;;;5048517;28;20032;-68
2021/05/28 13:28:20;;;;;;;6.97;3.95;;;;;;;;;;5049156;28;20029;-68
2021/05/28 13:30:56;;;;;;;3.72;3.05;;;;;;;;;;5047679;28;20037;-69
2021/05/28 13:33:32;;;;;;;3.40;2.95;;;;;;;;;;5048071;28;20557;-68
2021/05/28 13:36:03;;;;;;;5.65;3.10;;;;;;;;;;5048897;28;20033;-68
2021/05/28 13:38:29;;;;;;;5.50;3.88;;;;;;;;;;5048171;28;20467;-68
2021/05/28 13:40:57;;;;;;;9.50;4.68;;;;;;;;;;5044912;28;20148;-67
2021/05/28 13:43:24;;;;;;;10.48;3.95;;;;;;;;;;5048433;28;20029;-74
2021/05/28 13:45:51;;;;;;;4.90;3.50;;;;;;;;;;5048100;28;20082;-67
2021/05/28 13:48:17;;;;;;;9.20;4.43;;;;;;;;;;5048879;28;20029;-68
2021/05/28 13:50:44;;;;;;;5.95;3.75;;;;;;;;;;5048105;28;20040;-68
2021/05/28 13:53:11;;;;;;;12.07;5.28;;;;;;;;;;5049087;28;20112;-69
2021/05/28 13:55:38;;;;;;;4.80;4.10;;;;;;;;;;5047826;28;20025;-68
2021/05/28 13:58:08;;;;;;;4.60;4.20;;;;;;;;;;5046849;28;20032;-69
2021/05/28 14:00:34;;;;;;;7.18;4.50;;;;;;;;;;5047175;28;20043;-69
2021/05/28 14:03:01;;;;;;;10.15;4.55;;;;;;;;;;5033554;28;20059;-69
2021/05/28 14:05:28;;;;;;;6.35;3.33;;;;;;;;;;5044580;28;20053;-69
2021/05/28 14:07:55;;;;;;;5.60;3.85;;;;;;;;;;5046086;28;20514;-69
2021/05/28 14:10:21;;;;;;;6.30;3.67;;;;;;;;;;5047805;28;20403;-69
2021/05/28 14:12:47;;;;;;;4.80;3.20;;;;;;;;;;5047770;28;20446;-69
2021/05/28 14:15:15;;;;;;;5.03;4.15;;;;;;;;;;5048259;28;20033;-69
2021/05/28 14:17:41;;;;;;;9.40;3.63;;;;;;;;;;5047599;28;20032;-69
2021/05/28 14:20:08;;;;;;;7.00;3.58;;;;;;;;;;5052374;28;20119;-69
2021/05/28 14:22:34;;;;;;;3.65;3.13;;;;;;;;;;5047737;28;20044;-69
2021/05/28 14:25:00;;;;;;;3.72;3.05;;;;;;;;;;5051851;28;20063;-69
2021/05/28 14:27:26;;;;;;;5.50;3.40;;;;;;;;;;5051649;28;20079;-69
2021/05/28 14:29:53;;;;;;;5.82;4.32;;;;;;;;;;5051636;28;20369;-68
2021/05/28 14:32:21;;;;;;;9.50;4.43;;;;;;;;;;5051919;28;20422;-69
2021/05/28 14:34:47;;;;;;;4.68;3.28;;;;;;;;;;5050569;28;20178;-69
2021/05/28 14:37:13;;;;;;;4.72;3.47;;;;;;;;;;5037795;28;20241;-68
2021/05/28 14:39:39;;;;;;;4.75;3.28;;;;;;;;;;5029321;28;20144;-68
2021/05/28 14:42:05;;;;;;;4.63;3.63;;;;;;;;;;5031033;28;20057;-69
2021/05/28 14:44:32;;;;;;;4.57;3.05;;;;;;;;;;5047102;28;20427;-69
2021/05/28 14:46:58;;;;;;;6.90;3.50;;;;;;;;;;5051402;28;20037;-68
2021/05/28 14:49:24;;;;;;;7.22;4.07;;;;;;;;;;5050887;28;20036;-68